sensor_id;sensor_type;location;lat;lon;timestamp;P1;durP1;ratioP1;P2;durP2;ratioP2
18501;SDS011;68437;52.236;5.710;2023-03-13T00:01:29;39.03;;;7.72;;
18501;SDS011;68437;52.236;5.710;2023-03-13T00:03:57;55.88;;;8.25;;
18501;SDS011;68437;52.236;5.710;2023-03-13T00:06:25;44.60;;;7.72;;
18501;SDS011;68437;52.236;5.710;2023-03-13T00:08:57;42.28;;;7.20;;
18501;SDS011;68437;52.236;5.710;2023-03-13T00:11:26;46.20;;;8.57;;
18501;SDS011;68437;52.236;5.710;2023-03-13T00:13:57;41.47;;;7.82;;
18501;SDS011;68437;52.236;5.710;2023-03-13T00:16:26;46.25;;;7.60;;
18501;SDS011;68437;52.236;5.710;2023-03-13T00:18:54;39.53;;;7.78;;
18501;SDS011;68437;52.236;5.710;2023-03-13T00:21:25;49.47;;;8.45;;
18501;SDS011;68437;52.236;5.710;2023-03-13T00:23:53;43.63;;;7.97;;
18501;SDS011;68437;52.236;5.710;2023-03-13T00:26:22;43.97;;;8.00;;
18501;SDS011;68437;52.236;5.710;2023-03-13T00:28:51;52.63;;;8.25;;
18501;SDS011;68437;52.236;5.710;2023-03-13T00:31:20;47.50;;;8.45;;
18501;SDS011;68437;52.236;5.710;2023-03-13T00:33:49;48.28;;;8.57;;
18501;SDS011;68437;52.236;5.710;2023-03-13T00:36:18;42.03;;;8.07;;
18501;SDS011;68437;52.236;5.710;2023-03-13T00:38:46;37.58;;;7.30;;
18501;SDS011;68437;52.236;5.710;2023-03-13T00:41:13;43.25;;;7.85;;
18501;SDS011;68437;52.236;5.710;2023-03-13T00:43:43;45.25;;;7.78;;
18501;SDS011;68437;52.236;5.710;2023-03-13T00:46:11;36.65;;;7.63;;
18501;SDS011;68437;52.236;5.710;2023-03-13T00:48:39;44.67;;;8.23;;
18501;SDS011;68437;52.236;5.710;2023-03-13T00:51:07;47.10;;;7.57;;
18501;SDS011;68437;52.236;5.710;2023-03-13T00:53:34;52.00;;;8.63;;
18501;SDS011;68437;52.236;5.710;2023-03-13T00:56:05;36.03;;;7.45;;
18501;SDS011;68437;52.236;5.710;2023-03-13T00:58:33;46.65;;;8.00;;
18501;SDS011;68437;52.236;5.710;2023-03-13T01:01:06;45.50;;;7.97;;
18501;SDS011;68437;52.236;5.710;2023-03-13T01:03:35;37.25;;;7.40;;
18501;SDS011;68437;52.236;5.710;2023-03-13T01:06:04;48.50;;;8.18;;
18501;SDS011;68437;52.236;5.710;2023-03-13T01:08:32;42.63;;;7.65;;
18501;SDS011;68437;52.236;5.710;2023-03-13T01:10:59;42.75;;;8.25;;
18501;SDS011;68437;52.236;5.710;2023-03-13T01:13:27;42.10;;;7.90;;
18501;SDS011;68437;52.236;5.710;2023-03-13T01:15:57;40.47;;;8.27;;
18501;SDS011;68437;52.236;5.710;2023-03-13T01:18:28;36.03;;;7.70;;
18501;SDS011;68437;52.236;5.710;2023-03-13T01:20:55;38.05;;;8.60;;
18501;SDS011;68437;52.236;5.710;2023-03-13T01:23:22;44.78;;;9.18;;
18501;SDS011;68437;52.236;5.710;2023-03-13T01:25:51;47.50;;;9.23;;
18501;SDS011;68437;52.236;5.710;2023-03-13T01:28:19;37.20;;;9.35;;
18501;SDS011;68437;52.236;5.710;2023-03-13T01:30:46;37.92;;;8.80;;
18501;SDS011;68437;52.236;5.710;2023-03-13T01:33:12;34.97;;;9.43;;
18501;SDS011;68437;52.236;5.710;2023-03-13T01:35:41;35.25;;;9.25;;
18501;SDS011;68437;52.236;5.710;2023-03-13T01:38:08;39.85;;;9.98;;
18501;SDS011;68437;52.236;5.710;2023-03-13T01:40:38;39.53;;;9.88;;
18501;SDS011;68437;52.236;5.710;2023-03-13T01:43:11;36.75;;;8.73;;
18501;SDS011;68437;52.236;5.710;2023-03-13T01:45:53;38.45;;;9.45;;
18501;SDS011;68437;52.236;5.710;2023-03-13T01:48:25;36.92;;;9.65;;
18501;SDS011;68437;52.236;5.710;2023-03-13T01:50:57;29.00;;;9.45;;
18501;SDS011;68437;52.236;5.710;2023-03-13T01:53:27;35.17;;;9.18;;
18501;SDS011;68437;52.236;5.710;2023-03-13T01:56:04;37.42;;;9.32;;
18501;SDS011;68437;52.236;5.710;2023-03-13T01:58:33;35.00;;;8.98;;
18501;SDS011;68437;52.236;5.710;2023-03-13T02:01:01;26.55;;;9.25;;
18501;SDS011;68437;52.236;5.710;2023-03-13T02:03:30;31.60;;;9.27;;
18501;SDS011;68437;52.236;5.710;2023-03-13T02:05:59;30.10;;;8.85;;
18501;SDS011;68437;52.236;5.710;2023-03-13T02:08:28;27.73;;;8.70;;
18501;SDS011;68437;52.236;5.710;2023-03-13T02:11:00;29.75;;;9.38;;
18501;SDS011;68437;52.236;5.710;2023-03-13T02:13:35;29.88;;;9.00;;
18501;SDS011;68437;52.236;5.710;2023-03-13T02:16:02;24.75;;;8.48;;
18501;SDS011;68437;52.236;5.710;2023-03-13T02:18:29;30.98;;;9.25;;
18501;SDS011;68437;52.236;5.710;2023-03-13T02:20:58;26.38;;;9.10;;
18501;SDS011;68437;52.236;5.710;2023-03-13T02:23:33;31.77;;;9.57;;
18501;SDS011;68437;52.236;5.710;2023-03-13T02:26:06;25.25;;;9.63;;
18501;SDS011;68437;52.236;5.710;2023-03-13T02:28:33;29.95;;;10.23;;
18501;SDS011;68437;52.236;5.710;2023-03-13T02:31:03;25.08;;;10.02;;
18501;SDS011;68437;52.236;5.710;2023-03-13T02:33:32;26.55;;;9.98;;
18501;SDS011;68437;52.236;5.710;2023-03-13T02:36:01;34.28;;;10.95;;
18501;SDS011;68437;52.236;5.710;2023-03-13T02:38:29;38.05;;;11.40;;
18501;SDS011;68437;52.236;5.710;2023-03-13T02:40:58;25.45;;;10.80;;
18501;SDS011;68437;52.236;5.710;2023-03-13T02:43:30;37.33;;;11.68;;
18501;SDS011;68437;52.236;5.710;2023-03-13T02:46:01;32.45;;;11.50;;
18501;SDS011;68437;52.236;5.710;2023-03-13T02:48:31;32.65;;;11.90;;
18501;SDS011;68437;52.236;5.710;2023-03-13T02:51:00;29.90;;;10.88;;
18501;SDS011;68437;52.236;5.710;2023-03-13T02:53:28;26.55;;;11.30;;
18501;SDS011;68437;52.236;5.710;2023-03-13T02:55:58;32.95;;;12.30;;
18501;SDS011;68437;52.236;5.710;2023-03-13T02:58:25;28.10;;;11.98;;
18501;SDS011;68437;52.236;5.710;2023-03-13T03:00:54;33.22;;;12.70;;
18501;SDS011;68437;52.236;5.710;2023-03-13T03:03:20;34.40;;;13.23;;
18501;SDS011;68437;52.236;5.710;2023-03-13T03:05:47;31.95;;;12.75;;
18501;SDS011;68437;52.236;5.710;2023-03-13T03:08:14;31.17;;;12.80;;
18501;SDS011;68437;52.236;5.710;2023-03-13T03:10:41;28.27;;;12.65;;
18501;SDS011;68437;52.236;5.710;2023-03-13T03:13:08;32.15;;;12.55;;
18501;SDS011;68437;52.236;5.710;2023-03-13T03:15:34;30.63;;;13.23;;
18501;SDS011;68437;52.236;5.710;2023-03-13T03:18:03;27.83;;;13.38;;
18501;SDS011;68437;52.236;5.710;2023-03-13T03:20:30;29.95;;;14.32;;
18501;SDS011;68437;52.236;5.710;2023-03-13T03:22:56;31.65;;;14.27;;
18501;SDS011;68437;52.236;5.710;2023-03-13T03:25:23;33.17;;;15.20;;
18501;SDS011;68437;52.236;5.710;2023-03-13T03:27:50;34.38;;;15.60;;
18501;SDS011;68437;52.236;5.710;2023-03-13T03:30:17;41.78;;;16.83;;
18501;SDS011;68437;52.236;5.710;2023-03-13T03:32:45;42.55;;;17.00;;
18501;SDS011;68437;52.236;5.710;2023-03-13T03:35:13;37.88;;;17.17;;
18501;SDS011;68437;52.236;5.710;2023-03-13T03:37:40;41.13;;;16.90;;
18501;SDS011;68437;52.236;5.710;2023-03-13T03:40:07;43.65;;;17.75;;
18501;SDS011;68437;52.236;5.710;2023-03-13T03:42:36;39.38;;;17.98;;
18501;SDS011;68437;52.236;5.710;2023-03-13T03:45:03;41.83;;;17.63;;
18501;SDS011;68437;52.236;5.710;2023-03-13T03:47:33;40.97;;;18.38;;
18501;SDS011;68437;52.236;5.710;2023-03-13T03:50:00;39.53;;;17.70;;
18501;SDS011;68437;52.236;5.710;2023-03-13T03:52:29;44.22;;;18.77;;
18501;SDS011;68437;52.236;5.710;2023-03-13T03:55:02;45.25;;;18.95;;
18501;SDS011;68437;52.236;5.710;2023-03-13T03:57:41;43.22;;;19.95;;
18501;SDS011;68437;52.236;5.710;2023-03-13T04:00:09;42.83;;;19.30;;
18501;SDS011;68437;52.236;5.710;2023-03-13T04:02:39;41.33;;;19.73;;
18501;SDS011;68437;52.236;5.710;2023-03-13T04:05:07;46.83;;;19.55;;
18501;SDS011;68437;52.236;5.710;2023-03-13T04:07:35;45.13;;;21.25;;
18501;SDS011;68437;52.236;5.710;2023-03-13T04:10:04;44.20;;;21.00;;
18501;SDS011;68437;52.236;5.710;2023-03-13T04:12:32;48.78;;;20.05;;
18501;SDS011;68437;52.236;5.710;2023-03-13T04:14:59;43.40;;;20.88;;
18501;SDS011;68437;52.236;5.710;2023-03-13T04:17:25;49.10;;;21.42;;
18501;SDS011;68437;52.236;5.710;2023-03-13T04:19:52;43.13;;;20.83;;
18501;SDS011;68437;52.236;5.710;2023-03-13T04:22:22;47.03;;;21.13;;
18501;SDS011;68437;52.236;5.710;2023-03-13T04:24:50;40.90;;;20.52;;
18501;SDS011;68437;52.236;5.710;2023-03-13T04:27:17;45.72;;;20.60;;
18501;SDS011;68437;52.236;5.710;2023-03-13T04:29:44;45.72;;;19.55;;
18501;SDS011;68437;52.236;5.710;2023-03-13T04:32:12;40.97;;;19.98;;
18501;SDS011;68437;52.236;5.710;2023-03-13T04:34:39;44.55;;;20.45;;
18501;SDS011;68437;52.236;5.710;2023-03-13T04:37:06;43.65;;;19.85;;
18501;SDS011;68437;52.236;5.710;2023-03-13T04:39:33;37.50;;;19.80;;
18501;SDS011;68437;52.236;5.710;2023-03-13T04:42:01;44.85;;;20.45;;
18501;SDS011;68437;52.236;5.710;2023-03-13T04:44:28;45.40;;;19.58;;
18501;SDS011;68437;52.236;5.710;2023-03-13T04:46:58;44.90;;;20.55;;
18501;SDS011;68437;52.236;5.710;2023-03-13T04:49:24;38.92;;;19.40;;
18501;SDS011;68437;52.236;5.710;2023-03-13T04:51:51;40.83;;;19.58;;
18501;SDS011;68437;52.236;5.710;2023-03-13T04:54:18;41.80;;;19.33;;
18501;SDS011;68437;52.236;5.710;2023-03-13T04:56:45;38.65;;;18.75;;
18501;SDS011;68437;52.236;5.710;2023-03-13T04:59:14;39.33;;;19.15;;
18501;SDS011;68437;52.236;5.710;2023-03-13T05:01:41;42.05;;;19.38;;
18501;SDS011;68437;52.236;5.710;2023-03-13T05:04:09;39.22;;;18.30;;
18501;SDS011;68437;52.236;5.710;2023-03-13T05:06:39;44.78;;;18.05;;
18501;SDS011;68437;52.236;5.710;2023-03-13T05:09:05;46.28;;;18.13;;
18501;SDS011;68437;52.236;5.710;2023-03-13T05:11:33;39.92;;;18.60;;
18501;SDS011;68437;52.236;5.710;2023-03-13T05:14:02;38.58;;;18.17;;
18501;SDS011;68437;52.236;5.710;2023-03-13T05:16:33;41.47;;;18.38;;
18501;SDS011;68437;52.236;5.710;2023-03-13T05:19:00;36.05;;;17.30;;
18501;SDS011;68437;52.236;5.710;2023-03-13T05:21:27;36.75;;;17.55;;
18501;SDS011;68437;52.236;5.710;2023-03-13T05:23:54;34.70;;;16.25;;
18501;SDS011;68437;52.236;5.710;2023-03-13T05:26:25;33.97;;;15.65;;
18501;SDS011;68437;52.236;5.710;2023-03-13T05:28:52;29.63;;;15.30;;
18501;SDS011;68437;52.236;5.710;2023-03-13T05:31:19;36.17;;;14.25;;
18501;SDS011;68437;52.236;5.710;2023-03-13T05:33:47;33.92;;;16.65;;
18501;SDS011;68437;52.236;5.710;2023-03-13T05:36:14;32.58;;;14.38;;
18501;SDS011;68437;52.236;5.710;2023-03-13T05:38:41;33.65;;;18.02;;
18501;SDS011;68437;52.236;5.710;2023-03-13T05:41:07;29.52;;;15.98;;
18501;SDS011;68437;52.236;5.710;2023-03-13T05:43:34;39.10;;;21.13;;
18501;SDS011;68437;52.236;5.710;2023-03-13T05:46:01;33.65;;;14.77;;
18501;SDS011;68437;52.236;5.710;2023-03-13T05:48:28;25.30;;;12.98;;
18501;SDS011;68437;52.236;5.710;2023-03-13T05:50:56;26.23;;;12.20;;
18501;SDS011;68437;52.236;5.710;2023-03-13T05:53:23;34.45;;;12.70;;
18501;SDS011;68437;52.236;5.710;2023-03-13T05:55:50;22.70;;;10.85;;
18501;SDS011;68437;52.236;5.710;2023-03-13T05:58:17;26.52;;;13.23;;
18501;SDS011;68437;52.236;5.710;2023-03-13T06:00:43;24.85;;;10.30;;
18501;SDS011;68437;52.236;5.710;2023-03-13T06:03:10;23.65;;;8.43;;
18501;SDS011;68437;52.236;5.710;2023-03-13T06:05:37;18.88;;;7.70;;
18501;SDS011;68437;52.236;5.710;2023-03-13T06:08:05;19.08;;;7.60;;
18501;SDS011;68437;52.236;5.710;2023-03-13T06:10:32;23.48;;;7.55;;
18501;SDS011;68437;52.236;5.710;2023-03-13T06:12:59;20.33;;;7.70;;
18501;SDS011;68437;52.236;5.710;2023-03-13T06:15:28;18.27;;;7.68;;
18501;SDS011;68437;52.236;5.710;2023-03-13T06:17:55;18.88;;;7.40;;
18501;SDS011;68437;52.236;5.710;2023-03-13T06:20:22;19.13;;;6.97;;
18501;SDS011;68437;52.236;5.710;2023-03-13T06:22:49;48.95;;;17.85;;
18501;SDS011;68437;52.236;5.710;2023-03-13T06:25:17;20.60;;;10.07;;
18501;SDS011;68437;52.236;5.710;2023-03-13T06:27:44;28.75;;;12.65;;
18501;SDS011;68437;52.236;5.710;2023-03-13T06:30:11;20.20;;;9.98;;
18501;SDS011;68437;52.236;5.710;2023-03-13T06:32:38;18.60;;;7.47;;
18501;SDS011;68437;52.236;5.710;2023-03-13T06:35:07;20.67;;;7.15;;
18501;SDS011;68437;52.236;5.710;2023-03-13T06:37:34;25.63;;;8.07;;
18501;SDS011;68437;52.236;5.710;2023-03-13T06:40:01;16.65;;;7.05;;
18501;SDS011;68437;52.236;5.710;2023-03-13T06:42:31;15.27;;;7.07;;
18501;SDS011;68437;52.236;5.710;2023-03-13T06:44:58;17.13;;;6.80;;
18501;SDS011;68437;52.236;5.710;2023-03-13T06:47:29;13.82;;;6.65;;
18501;SDS011;68437;52.236;5.710;2023-03-13T06:50:07;20.92;;;6.68;;
18501;SDS011;68437;52.236;5.710;2023-03-13T06:52:35;16.83;;;6.50;;
18501;SDS011;68437;52.236;5.710;2023-03-13T06:55:03;14.20;;;6.22;;
18501;SDS011;68437;52.236;5.710;2023-03-13T06:57:34;17.27;;;6.97;;
18501;SDS011;68437;52.236;5.710;2023-03-13T07:00:01;15.90;;;6.95;;
18501;SDS011;68437;52.236;5.710;2023-03-13T07:02:30;15.80;;;7.28;;
18501;SDS011;68437;52.236;5.710;2023-03-13T07:04:56;20.17;;;8.30;;
18501;SDS011;68437;52.236;5.710;2023-03-13T07:07:23;20.17;;;9.18;;
18501;SDS011;68437;52.236;5.710;2023-03-13T07:09:50;18.10;;;7.55;;
18501;SDS011;68437;52.236;5.710;2023-03-13T07:12:19;15.95;;;6.25;;
18501;SDS011;68437;52.236;5.710;2023-03-13T07:14:50;13.80;;;6.35;;
18501;SDS011;68437;52.236;5.710;2023-03-13T07:17:19;15.98;;;6.90;;
18501;SDS011;68437;52.236;5.710;2023-03-13T07:19:45;15.98;;;6.43;;
18501;SDS011;68437;52.236;5.710;2023-03-13T07:22:12;17.58;;;7.00;;
18501;SDS011;68437;52.236;5.710;2023-03-13T07:24:39;17.30;;;6.75;;
18501;SDS011;68437;52.236;5.710;2023-03-13T07:27:06;17.02;;;5.78;;
18501;SDS011;68437;52.236;5.710;2023-03-13T07:29:33;14.93;;;5.65;;
18501;SDS011;68437;52.236;5.710;2023-03-13T07:32:01;11.20;;;5.22;;
18501;SDS011;68437;52.236;5.710;2023-03-13T07:34:28;14.00;;;5.80;;
18501;SDS011;68437;52.236;5.710;2023-03-13T07:36:57;15.73;;;6.00;;
18501;SDS011;68437;52.236;5.710;2023-03-13T07:39:27;14.65;;;5.65;;
18501;SDS011;68437;52.236;5.710;2023-03-13T07:41:54;12.68;;;5.32;;
18501;SDS011;68437;52.236;5.710;2023-03-13T07:44:21;11.38;;;5.53;;
18501;SDS011;68437;52.236;5.710;2023-03-13T07:46:48;14.52;;;5.20;;
18501;SDS011;68437;52.236;5.710;2023-03-13T07:49:16;20.13;;;5.78;;
18501;SDS011;68437;52.236;5.710;2023-03-13T07:51:43;17.63;;;5.53;;
18501;SDS011;68437;52.236;5.710;2023-03-13T07:54:11;13.27;;;5.50;;
18501;SDS011;68437;52.236;5.710;2023-03-13T07:56:39;13.85;;;5.78;;
18501;SDS011;68437;52.236;5.710;2023-03-13T07:59:05;13.45;;;6.20;;
18501;SDS011;68437;52.236;5.710;2023-03-13T08:01:32;14.45;;;5.40;;
18501;SDS011;68437;52.236;5.710;2023-03-13T08:03:59;15.15;;;5.80;;
18501;SDS011;68437;52.236;5.710;2023-03-13T08:06:28;17.65;;;6.00;;
18501;SDS011;68437;52.236;5.710;2023-03-13T08:08:57;12.40;;;6.00;;
18501;SDS011;68437;52.236;5.710;2023-03-13T08:11:25;18.23;;;6.55;;
18501;SDS011;68437;52.236;5.710;2023-03-13T08:13:53;18.52;;;6.93;;
18501;SDS011;68437;52.236;5.710;2023-03-13T08:16:22;14.38;;;6.80;;
18501;SDS011;68437;52.236;5.710;2023-03-13T08:18:50;18.98;;;7.22;;
18501;SDS011;68437;52.236;5.710;2023-03-13T08:21:20;17.85;;;7.65;;
18501;SDS011;68437;52.236;5.710;2023-03-13T08:23:51;16.95;;;6.82;;
18501;SDS011;68437;52.236;5.710;2023-03-13T08:26:19;17.52;;;6.95;;
18501;SDS011;68437;52.236;5.710;2023-03-13T08:28:52;17.95;;;5.93;;
18501;SDS011;68437;52.236;5.710;2023-03-13T08:31:21;15.75;;;5.47;;
18501;SDS011;68437;52.236;5.710;2023-03-13T08:33:50;12.85;;;5.57;;
18501;SDS011;68437;52.236;5.710;2023-03-13T08:36:18;15.60;;;5.68;;
18501;SDS011;68437;52.236;5.710;2023-03-13T08:38:51;14.40;;;5.30;;
18501;SDS011;68437;52.236;5.710;2023-03-13T08:41:19;12.48;;;5.20;;
18501;SDS011;68437;52.236;5.710;2023-03-13T08:43:47;12.27;;;5.90;;
18501;SDS011;68437;52.236;5.710;2023-03-13T08:46:16;15.68;;;6.07;;
18501;SDS011;68437;52.236;5.710;2023-03-13T08:48:43;12.65;;;6.20;;
18501;SDS011;68437;52.236;5.710;2023-03-13T08:51:15;14.65;;;6.28;;
18501;SDS011;68437;52.236;5.710;2023-03-13T08:53:42;13.70;;;6.65;;
18501;SDS011;68437;52.236;5.710;2023-03-13T08:56:11;13.05;;;5.82;;
18501;SDS011;68437;52.236;5.710;2023-03-13T08:58:39;12.32;;;5.93;;
18501;SDS011;68437;52.236;5.710;2023-03-13T09:01:07;14.57;;;5.85;;
18501;SDS011;68437;52.236;5.710;2023-03-13T09:03:37;16.80;;;6.13;;
18501;SDS011;68437;52.236;5.710;2023-03-13T09:06:05;14.73;;;6.28;;
18501;SDS011;68437;52.236;5.710;2023-03-13T09:08:32;13.15;;;5.25;;
18501;SDS011;68437;52.236;5.710;2023-03-13T09:11:00;13.52;;;5.63;;
18501;SDS011;68437;52.236;5.710;2023-03-13T09:13:31;9.93;;;4.63;;
18501;SDS011;68437;52.236;5.710;2023-03-13T09:15:59;9.50;;;4.63;;
18501;SDS011;68437;52.236;5.710;2023-03-13T09:18:27;12.35;;;4.63;;
18501;SDS011;68437;52.236;5.710;2023-03-13T09:20:54;14.15;;;4.45;;
18501;SDS011;68437;52.236;5.710;2023-03-13T09:23:22;10.27;;;4.13;;
18501;SDS011;68437;52.236;5.710;2023-03-13T09:25:51;10.55;;;4.30;;
18501;SDS011;68437;52.236;5.710;2023-03-13T09:28:19;16.70;;;6.57;;
18501;SDS011;68437;52.236;5.710;2023-03-13T09:30:47;11.68;;;4.05;;
18501;SDS011;68437;52.236;5.710;2023-03-13T09:33:17;18.20;;;7.65;;
18501;SDS011;68437;52.236;5.710;2023-03-13T09:35:45;13.60;;;5.63;;
18501;SDS011;68437;52.236;5.710;2023-03-13T09:38:14;6.47;;;3.78;;
18501;SDS011;68437;52.236;5.710;2023-03-13T09:40:43;8.25;;;3.63;;
18501;SDS011;68437;52.236;5.710;2023-03-13T09:43:15;12.55;;;3.42;;
18501;SDS011;68437;52.236;5.710;2023-03-13T09:45:51;10.88;;;3.10;;
18501;SDS011;68437;52.236;5.710;2023-03-13T09:48:26;8.68;;;2.80;;
18501;SDS011;68437;52.236;5.710;2023-03-13T09:50:59;8.80;;;2.70;;
18501;SDS011;68437;52.236;5.710;2023-03-13T09:53:32;8.07;;;2.85;;
18501;SDS011;68437;52.236;5.710;2023-03-13T09:56:04;9.18;;;2.60;;
18501;SDS011;68437;52.236;5.710;2023-03-13T09:58:43;7.30;;;2.53;;
18501;SDS011;68437;52.236;5.710;2023-03-13T10:01:18;9.57;;;2.65;;
18501;SDS011;68437;52.236;5.710;2023-03-13T10:03:52;7.00;;;2.53;;
18501;SDS011;68437;52.236;5.710;2023-03-13T10:06:25;7.85;;;2.35;;
18501;SDS011;68437;52.236;5.710;2023-03-13T10:08:58;10.00;;;2.20;;
18501;SDS011;68437;52.236;5.710;2023-03-13T10:11:28;7.82;;;2.55;;
18501;SDS011;68437;52.236;5.710;2023-03-13T10:14:03;7.88;;;2.40;;
18501;SDS011;68437;52.236;5.710;2023-03-13T10:16:39;10.07;;;3.78;;
18501;SDS011;68437;52.236;5.710;2023-03-13T10:19:10;12.18;;;3.72;;
18501;SDS011;68437;52.236;5.710;2023-03-13T10:21:43;7.03;;;2.00;;
18501;SDS011;68437;52.236;5.710;2023-03-13T10:24:17;8.93;;;3.00;;
18501;SDS011;68437;52.236;5.710;2023-03-13T10:26:51;8.85;;;2.65;;
18501;SDS011;68437;52.236;5.710;2023-03-13T10:29:21;10.82;;;3.67;;
18501;SDS011;68437;52.236;5.710;2023-03-13T10:31:53;11.15;;;3.13;;
18501;SDS011;68437;52.236;5.710;2023-03-13T10:34:22;4.78;;;1.80;;
18501;SDS011;68437;52.236;5.710;2023-03-13T10:36:53;7.07;;;2.08;;
18501;SDS011;68437;52.236;5.710;2023-03-13T10:39:22;5.38;;;1.80;;
18501;SDS011;68437;52.236;5.710;2023-03-13T10:41:55;5.40;;;1.90;;
18501;SDS011;68437;52.236;5.710;2023-03-13T10:44:28;4.70;;;2.10;;
18501;SDS011;68437;52.236;5.710;2023-03-13T10:46:59;7.50;;;1.80;;
18501;SDS011;68437;52.236;5.710;2023-03-13T10:49:28;5.60;;;2.00;;
18501;SDS011;68437;52.236;5.710;2023-03-13T10:52:00;6.88;;;2.85;;
18501;SDS011;68437;52.236;5.710;2023-03-13T10:54:28;6.43;;;2.10;;
18501;SDS011;68437;52.236;5.710;2023-03-13T10:57:09;8.82;;;2.63;;
18501;SDS011;68437;52.236;5.710;2023-03-13T10:59:51;7.00;;;2.28;;
18501;SDS011;68437;52.236;5.710;2023-03-13T11:02:21;5.82;;;2.00;;
18501;SDS011;68437;52.236;5.710;2023-03-13T11:04:51;5.38;;;2.10;;
18501;SDS011;68437;52.236;5.710;2023-03-13T11:07:24;9.65;;;2.80;;
18501;SDS011;68437;52.236;5.710;2023-03-13T11:09:56;9.82;;;3.17;;
18501;SDS011;68437;52.236;5.710;2023-03-13T11:12:24;7.25;;;2.08;;
18501;SDS011;68437;52.236;5.710;2023-03-13T11:14:55;10.13;;;2.88;;
18501;SDS011;68437;52.236;5.710;2023-03-13T11:17:26;9.55;;;2.90;;
18501;SDS011;68437;52.236;5.710;2023-03-13T11:20:07;8.13;;;2.33;;
18501;SDS011;68437;52.236;5.710;2023-03-13T11:22:52;7.78;;;2.95;;
18501;SDS011;68437;52.236;5.710;2023-03-13T11:25:28;7.15;;;2.00;;
18501;SDS011;68437;52.236;5.710;2023-03-13T11:28:10;7.32;;;1.88;;
18501;SDS011;68437;52.236;5.710;2023-03-13T11:30:54;8.70;;;2.08;;
18501;SDS011;68437;52.236;5.710;2023-03-13T11:33:32;8.32;;;1.67;;
18501;SDS011;68437;52.236;5.710;2023-03-13T11:36:06;8.40;;;1.70;;
18501;SDS011;68437;52.236;5.710;2023-03-13T11:38:44;11.38;;;2.45;;
18501;SDS011;68437;52.236;5.710;2023-03-13T11:41:20;17.58;;;1.92;;
18501;SDS011;68437;52.236;5.710;2023-03-13T11:44:00;7.60;;;1.77;;
18501;SDS011;68437;52.236;5.710;2023-03-13T11:46:46;7.03;;;1.63;;
18501;SDS011;68437;52.236;5.710;2023-03-13T11:49:31;3.85;;;1.58;;
18501;SDS011;68437;52.236;5.710;2023-03-13T11:52:11;7.78;;;2.13;;
18501;SDS011;68437;52.236;5.710;2023-03-13T11:54:55;12.27;;;7.05;;
18501;SDS011;68437;52.236;5.710;2023-03-13T11:57:29;11.75;;;4.53;;
18501;SDS011;68437;52.236;5.710;2023-03-13T12:00:06;9.23;;;1.80;;
18501;SDS011;68437;52.236;5.710;2023-03-13T12:02:52;7.25;;;2.10;;
18501;SDS011;68437;52.236;5.710;2023-03-13T12:05:23;5.65;;;2.05;;
18501;SDS011;68437;52.236;5.710;2023-03-13T12:07:53;7.32;;;2.28;;
18501;SDS011;68437;52.236;5.710;2023-03-13T12:10:27;8.02;;;2.00;;
18501;SDS011;68437;52.236;5.710;2023-03-13T12:13:02;7.35;;;1.67;;
18501;SDS011;68437;52.236;5.710;2023-03-13T12:15:33;7.20;;;1.83;;
18501;SDS011;68437;52.236;5.710;2023-03-13T12:18:04;4.90;;;1.75;;
18501;SDS011;68437;52.236;5.710;2023-03-13T12:20:41;3.17;;;1.60;;
18501;SDS011;68437;52.236;5.710;2023-03-13T12:23:17;7.03;;;1.77;;
18501;SDS011;68437;52.236;5.710;2023-03-13T12:25:50;5.40;;;1.50;;
18501;SDS011;68437;52.236;5.710;2023-03-13T12:28:22;7.00;;;1.80;;
18501;SDS011;68437;52.236;5.710;2023-03-13T12:30:59;8.32;;;1.80;;
18501;SDS011;68437;52.236;5.710;2023-03-13T12:33:33;6.97;;;1.85;;
18501;SDS011;68437;52.236;5.710;2023-03-13T12:36:07;8.55;;;1.58;;
18501;SDS011;68437;52.236;5.710;2023-03-13T12:38:39;8.68;;;1.50;;
18501;SDS011;68437;52.236;5.710;2023-03-13T12:41:17;6.78;;;1.70;;
18501;SDS011;68437;52.236;5.710;2023-03-13T12:43:49;6.78;;;1.42;;
18501;SDS011;68437;52.236;5.710;2023-03-13T12:46:21;7.65;;;1.70;;
18501;SDS011;68437;52.236;5.710;2023-03-13T12:49:09;6.90;;;1.80;;
18501;SDS011;68437;52.236;5.710;2023-03-13T12:51:53;12.07;;;2.30;;
18501;SDS011;68437;52.236;5.710;2023-03-13T12:54:39;11.18;;;2.20;;
18501;SDS011;68437;52.236;5.710;2023-03-13T12:57:17;5.50;;;1.67;;
18501;SDS011;68437;52.236;5.710;2023-03-13T13:00:10;9.30;;;1.58;;
18501;SDS011;68437;52.236;5.710;2023-03-13T13:02:41;10.32;;;2.10;;
18501;SDS011;68437;52.236;5.710;2023-03-13T13:05:15;13.80;;;2.17;;
18501;SDS011;68437;52.236;5.710;2023-03-13T13:07:45;9.95;;;2.00;;
18501;SDS011;68437;52.236;5.710;2023-03-13T13:10:19;11.20;;;1.88;;
18501;SDS011;68437;52.236;5.710;2023-03-13T13:15:44;12.13;;;2.17;;
18501;SDS011;68437;52.236;5.710;2023-03-13T13:18:13;11.52;;;2.00;;
18501;SDS011;68437;52.236;5.710;2023-03-13T13:21:17;13.45;;;2.22;;
18501;SDS011;68437;52.236;5.710;2023-03-13T13:23:47;14.15;;;2.00;;
18501;SDS011;68437;52.236;5.710;2023-03-13T13:32:38;12.07;;;2.20;;
18501;SDS011;68437;52.236;5.710;2023-03-13T13:35:29;15.77;;;2.58;;
18501;SDS011;68437;52.236;5.710;2023-03-13T13:41:02;11.57;;;2.10;;
18501;SDS011;68437;52.236;5.710;2023-03-13T13:43:46;11.07;;;2.05;;
18501;SDS011;68437;52.236;5.710;2023-03-13T13:46:23;12.52;;;1.95;;
18501;SDS011;68437;52.236;5.710;2023-03-13T13:49:05;12.02;;;2.20;;
18501;SDS011;68437;52.236;5.710;2023-03-13T13:51:38;15.27;;;2.42;;
18501;SDS011;68437;52.236;5.710;2023-03-13T13:54:27;13.65;;;2.25;;
18501;SDS011;68437;52.236;5.710;2023-03-13T13:56:58;12.43;;;2.47;;
18501;SDS011;68437;52.236;5.710;2023-03-13T13:59:32;12.73;;;2.45;;
18501;SDS011;68437;52.236;5.710;2023-03-13T14:05:04;15.68;;;2.40;;
18501;SDS011;68437;52.236;5.710;2023-03-13T14:07:45;10.43;;;2.38;;
18501;SDS011;68437;52.236;5.710;2023-03-13T14:10:25;14.13;;;2.72;;
18501;SDS011;68437;52.236;5.710;2023-03-13T14:12:58;19.98;;;3.17;;
18501;SDS011;68437;52.236;5.710;2023-03-13T14:15:27;17.10;;;2.85;;
18501;SDS011;68437;52.236;5.710;2023-03-13T14:17:56;31.35;;;6.20;;
18501;SDS011;68437;52.236;5.710;2023-03-13T14:20:26;21.30;;;4.55;;
18501;SDS011;68437;52.236;5.710;2023-03-13T14:22:56;16.83;;;4.88;;
18501;SDS011;68437;52.236;5.710;2023-03-13T14:25:25;23.70;;;7.15;;
18501;SDS011;68437;52.236;5.710;2023-03-13T14:27:53;14.98;;;3.45;;
18501;SDS011;68437;52.236;5.710;2023-03-13T14:30:22;15.27;;;2.90;;
18501;SDS011;68437;52.236;5.710;2023-03-13T14:32:49;15.50;;;3.40;;
18501;SDS011;68437;52.236;5.710;2023-03-13T14:35:18;21.98;;;3.17;;
18501;SDS011;68437;52.236;5.710;2023-03-13T14:37:46;19.25;;;3.45;;
18501;SDS011;68437;52.236;5.710;2023-03-13T14:40:19;18.20;;;3.22;;
18501;SDS011;68437;52.236;5.710;2023-03-13T14:42:49;11.80;;;2.72;;
18501;SDS011;68437;52.236;5.710;2023-03-13T14:45:20;31.95;;;3.30;;
18501;SDS011;68437;52.236;5.710;2023-03-13T14:47:51;19.30;;;2.97;;
18501;SDS011;68437;52.236;5.710;2023-03-13T14:50:18;16.70;;;3.13;;
18501;SDS011;68437;52.236;5.710;2023-03-13T14:52:48;13.40;;;2.83;;
18501;SDS011;68437;52.236;5.710;2023-03-13T14:55:30;15.82;;;2.80;;
18501;SDS011;68437;52.236;5.710;2023-03-13T14:57:59;19.50;;;5.70;;
18501;SDS011;68437;52.236;5.710;2023-03-13T15:00:35;39.75;;;12.85;;
18501;SDS011;68437;52.236;5.710;2023-03-13T15:03:26;31.13;;;10.20;;
18501;SDS011;68437;52.236;5.710;2023-03-13T15:06:02;24.08;;;8.75;;
18501;SDS011;68437;52.236;5.710;2023-03-13T15:08:32;18.35;;;3.55;;